Black Brook, Wisconsin
Current Conditions -  °F | °C
As of 6:55 PM on Monday 24 Nov 2014 (Local Time) from KRNH Reporting Station
Light Snow Light Snow  
Wind Chill:   Ceiling: 2300
Heat Index: 19°   Visibility: 10mi
Dew Point: 15°   Wind: 13mph
Humidity: 82%   Direction: 320°NW
Pressure: 29.71"   Gusts: 21mph
Location:  45.2417°N, 92.2543°W
Report Text: KRNH 250055Z AUTO 32011G18KT 10SM -SN OVC023 M07/M10 A2971 RMK AO2 T10701096
Loading
Personal Weather Stations






























Interactive Weather Map New forecast layout! Learn more

10-Day Weather Forecast

Advertisements
Track Severe Weather on mobile